createdAt,value
2023-05-13T00:01:59.911Z,98374.75
2023-05-13T00:04:27.165Z,98379.25
2023-05-13T00:06:54.380Z,98382.53
2023-05-13T00:09:21.489Z,98386.06
2023-05-13T00:11:48.604Z,98384.09
2023-05-13T00:14:15.666Z,98377.97
2023-05-13T00:16:43.304Z,98378.69
2023-05-13T00:19:10.596Z,98377.44
2023-05-13T00:21:38.030Z,98384.09
2023-05-13T00:24:05.774Z,98375.44
2023-05-13T00:26:32.957Z,98368.25
2023-05-13T00:29:00.295Z,98377.50
2023-05-13T00:31:27.552Z,98375.00
2023-05-13T00:33:54.664Z,98373.22
2023-05-13T00:36:21.784Z,98379.72
2023-05-13T00:38:48.953Z,98373.28
2023-05-13T00:41:16.577Z,98384.25
2023-05-13T00:43:43.714Z,98386.06
2023-05-13T00:46:10.857Z,98381.09
2023-05-13T00:48:38.559Z,98382.84
2023-05-13T00:51:05.712Z,98390.88
2023-05-13T00:53:33.412Z,98385.69
2023-05-13T00:56:00.658Z,98381.78
2023-05-13T00:58:27.861Z,98381.03
2023-05-13T01:01:04.258Z,98380.09
2023-05-13T01:04:09.031Z,98381.94
2023-05-13T01:07:07.332Z,98375.13
2023-05-13T01:10:16.089Z,98366.47
2023-05-13T01:12:45.302Z,98375.66
2023-05-13T01:15:21.679Z,98380.69
2023-05-13T01:18:06.296Z,98382.03
2023-05-13T01:20:34.384Z,98385.56
2023-05-13T01:23:01.584Z,98384.63
2023-05-13T01:25:28.713Z,98385.13
2023-05-13T01:27:55.881Z,98389.13
2023-05-13T01:30:23.873Z,98383.13
2023-05-13T01:32:51.928Z,98390.63
2023-05-13T01:35:19.720Z,98390.63
2023-05-13T01:37:47.521Z,98383.94
2023-05-13T01:40:30.563Z,98385.25
2023-05-13T01:42:58.642Z,98389.78
2023-05-13T01:45:28.306Z,98388.84
2023-05-13T01:47:56.156Z,98390.59
2023-05-13T01:50:23.920Z,98385.94
2023-05-13T01:52:51.365Z,98381.78
2023-05-13T01:55:18.915Z,98381.59
2023-05-13T01:57:46.087Z,98395.13
2023-05-13T02:00:13.610Z,98394.19
2023-05-13T02:02:40.843Z,98382.22
2023-05-13T02:05:08.681Z,98385.25
2023-05-13T02:07:35.999Z,98381.31
2023-05-13T02:10:03.206Z,98373.91
2023-05-13T02:12:30.619Z,98380.91
2023-05-13T02:14:57.808Z,98375.22
2023-05-13T02:17:25.058Z,98371.97
2023-05-13T02:19:52.543Z,98379.22
2023-05-13T02:22:19.691Z,98369.03
2023-05-13T02:24:46.735Z,98376.28
2023-05-13T02:27:16.363Z,98381.53
2023-05-13T02:29:43.453Z,98381.06
2023-05-13T02:32:10.574Z,98386.09
2023-05-13T02:34:37.808Z,98384.16
2023-05-13T02:37:06.500Z,98387.22
2023-05-13T02:39:33.589Z,98380.53
2023-05-13T02:42:00.797Z,98380.34
2023-05-13T02:44:27.868Z,98373.91
2023-05-13T02:46:54.993Z,98372.47
2023-05-13T02:49:22.197Z,98374.28
2023-05-13T02:51:49.357Z,98372.78
2023-05-13T02:54:16.494Z,98373.56
2023-05-13T02:56:43.607Z,98373.84
2023-05-13T02:59:11.228Z,98375.63
2023-05-13T03:01:38.400Z,98376.63
2023-05-13T03:04:05.547Z,98376.19
2023-05-13T03:06:32.770Z,98375.22
2023-05-13T03:08:59.817Z,98371.03
2023-05-13T03:11:27.228Z,98370.53
2023-05-13T03:13:54.285Z,98372.25
2023-05-13T03:16:21.404Z,98379.97
2023-05-13T03:18:48.806Z,98364.84
2023-05-13T03:21:16.060Z,98372.81
2023-05-13T03:23:43.119Z,98370.84
2023-05-13T03:26:10.205Z,98374.34
2023-05-13T03:28:37.428Z,98366.66
2023-05-13T03:31:04.663Z,98380.59
2023-05-13T03:33:31.921Z,98384.13
2023-05-13T03:35:58.946Z,98382.91
2023-05-13T03:38:26.008Z,98384.91
2023-05-13T03:40:53.053Z,98388.13
2023-05-13T03:43:20.237Z,98386.66
2023-05-13T03:45:48.564Z,98390.88
2023-05-13T03:48:15.673Z,98390.13
2023-05-13T03:50:42.863Z,98396.84
2023-05-13T03:53:13.064Z,98391.84
2023-05-13T03:55:40.297Z,98387.63
2023-05-13T03:58:14.772Z,98392.63
2023-05-13T04:00:42.420Z,98394.13
2023-05-13T04:03:09.627Z,98402.34
2023-05-13T04:05:36.692Z,98404.81
2023-05-13T04:08:03.847Z,98403.34
2023-05-13T04:10:31.041Z,98399.88
2023-05-13T04:12:58.276Z,98400.34
2023-05-13T04:15:25.360Z,98402.09
2023-05-13T04:17:52.599Z,98403.28
2023-05-13T04:20:20.238Z,98391.38
2023-05-13T04:22:48.114Z,98401.06
2023-05-13T04:25:15.701Z,98404.53
2023-05-13T04:27:43.076Z,98401.03
2023-05-13T04:30:10.895Z,98401.50
2023-05-13T04:32:38.602Z,98404.72
2023-05-13T04:35:09.426Z,98404.19
2023-05-13T04:37:36.675Z,98409.63
2023-05-13T04:40:04.135Z,98404.88
2023-05-13T04:42:31.298Z,98410.81
2023-05-13T04:44:58.370Z,98408.78
2023-05-13T04:47:25.412Z,98409.00
2023-05-13T04:49:52.530Z,98409.94
2023-05-13T04:52:20.063Z,98417.06
2023-05-13T04:54:47.129Z,98410.56
2023-05-13T04:57:14.694Z,98408.25
2023-05-13T04:59:41.789Z,98407.66
2023-05-13T05:02:08.843Z,98414.28
2023-05-13T05:04:35.986Z,98416.66
2023-05-13T05:07:03.036Z,98418.47
2023-05-13T05:09:30.314Z,98421.09
2023-05-13T05:11:57.390Z,98414.47
2023-05-13T05:14:24.522Z,98423.22
2023-05-13T05:16:51.673Z,98416.06
2023-05-13T05:19:24.004Z,98428.09
2023-05-13T05:21:51.899Z,98426.19
2023-05-13T05:24:19.459Z,98426.91
2023-05-13T05:26:46.655Z,98422.66
2023-05-13T05:29:13.701Z,98426.47
2023-05-13T05:31:41.064Z,98429.63
2023-05-13T05:34:08.209Z,98430.00
2023-05-13T05:36:38.111Z,98428.34
2023-05-13T05:39:05.900Z,98430.28
2023-05-13T05:41:33.182Z,98437.16
2023-05-13T05:44:00.282Z,98440.31
2023-05-13T05:46:27.776Z,98435.59
2023-05-13T05:48:54.986Z,98440.03
2023-05-13T05:51:22.078Z,98432.84
2023-05-13T05:53:49.134Z,98437.91
2023-05-13T05:56:16.237Z,98435.91
2023-05-13T05:58:43.308Z,98432.41
2023-05-13T06:01:10.453Z,98430.91
2023-05-13T06:03:37.618Z,98431.41
2023-05-13T06:06:05.150Z,98435.88
2023-05-13T06:08:32.418Z,98433.94
2023-05-13T06:10:59.523Z,98442.28
2023-05-13T06:13:26.699Z,98443.88
2023-05-13T06:15:53.781Z,98440.28
2023-05-13T06:18:21.072Z,98444.69
2023-05-13T06:20:48.116Z,98442.78
2023-05-13T06:23:15.201Z,98443.63
2023-05-13T06:25:42.363Z,98442.88
2023-05-13T06:28:10.916Z,98447.63
2023-05-13T06:30:38.612Z,98451.78
2023-05-13T06:33:06.282Z,98446.28
2023-05-13T06:35:33.355Z,98446.34
2023-05-13T06:38:00.447Z,98443.13
2023-05-13T06:40:27.578Z,98444.09
2023-05-13T06:42:54.662Z,98447.53
2023-05-13T06:45:23.449Z,98443.25
2023-05-13T06:47:51.395Z,98438.94
2023-05-13T06:50:18.853Z,98435.88
2023-05-13T06:52:45.995Z,98438.31
2023-05-13T06:55:13.301Z,98441.47
2023-05-13T06:57:43.443Z,98446.31
2023-05-13T07:00:11.244Z,98441.19
2023-05-13T07:02:38.457Z,98435.38
2023-05-13T07:05:05.968Z,98437.63
2023-05-13T07:07:33.032Z,98433.38
2023-05-13T07:10:00.290Z,98439.13
2023-05-13T07:12:27.398Z,98437.25
2023-05-13T07:14:54.473Z,98437.47
2023-05-13T07:17:21.624Z,98442.25
2023-05-13T07:19:48.840Z,98442.09
2023-05-13T07:22:15.929Z,98444.16
2023-05-13T07:24:43.077Z,98441.41
2023-05-13T07:27:10.179Z,98431.84
2023-05-13T07:29:37.250Z,98435.31
2023-05-13T07:32:05.708Z,98435.66
2023-05-13T07:34:32.753Z,98429.72
2023-05-13T07:36:59.915Z,98435.25
2023-05-13T07:39:27.777Z,98427.66
2023-05-13T07:41:55.025Z,98434.63
2023-05-13T07:44:22.354Z,98434.28
2023-05-13T07:46:51.541Z,98440.16
2023-05-13T07:49:18.976Z,98426.88
2023-05-13T07:51:46.389Z,98441.13
2023-05-13T07:54:13.422Z,98439.66
2023-05-13T07:56:40.572Z,98429.72
2023-05-13T07:59:07.650Z,98420.78
2023-05-13T08:01:34.716Z,98424.25
2023-05-13T08:04:02.137Z,98433.63
2023-05-13T08:06:30.035Z,98433.03
2023-05-13T08:08:57.206Z,98425.81
2023-05-13T08:11:24.428Z,98427.31
2023-05-13T08:13:51.774Z,98432.13
2023-05-13T08:16:18.843Z,98422.25
2023-05-13T08:18:46.049Z,98433.06
2023-05-13T08:21:13.195Z,98428.59
2023-05-13T08:23:44.960Z,98416.91
2023-05-13T08:26:13.391Z,98422.03
2023-05-13T08:28:42.269Z,98423.41
2023-05-13T08:31:13.142Z,98423.94
2023-05-13T08:33:41.864Z,98426.91
2023-05-13T08:36:09.597Z,98419.34
2023-05-13T08:38:36.713Z,98420.91
2023-05-13T08:41:05.365Z,98426.50
2023-05-13T08:43:32.980Z,98419.53
2023-05-13T08:46:03.941Z,98415.47
2023-05-13T08:48:32.045Z,98414.81
2023-05-13T08:50:59.270Z,98408.53
2023-05-13T08:53:26.822Z,98409.25
2023-05-13T08:55:54.533Z,98418.47
2023-05-13T08:58:21.767Z,98426.19
2023-05-13T09:00:49.726Z,98424.72
2023-05-13T09:03:16.973Z,98421.38
2023-05-13T09:05:44.036Z,98413.09
2023-05-13T09:08:11.292Z,98418.78
2023-05-13T09:10:41.281Z,98412.72
2023-05-13T09:13:08.383Z,98410.94
2023-05-13T09:15:35.488Z,98413.66
2023-05-13T09:18:06.003Z,98415.72
2023-05-13T09:20:34.643Z,98415.44
2023-05-13T09:23:06.929Z,98415.28
2023-05-13T09:25:34.332Z,98416.53
2023-05-13T09:28:02.775Z,98415.66
2023-05-13T09:30:32.823Z,98415.81
2023-05-13T09:33:12.113Z,98422.50
2023-05-13T09:35:40.219Z,98419.38
2023-05-13T09:38:26.297Z,98426.13
2023-05-13T09:40:58.384Z,98414.91
2023-05-13T09:43:28.092Z,98421.81
2023-05-13T09:45:56.267Z,98408.78
2023-05-13T09:48:28.212Z,98410.81
2023-05-13T09:50:57.889Z,98414.47
2023-05-13T09:53:26.066Z,98406.25
2023-05-13T09:55:55.589Z,98414.50
2023-05-13T09:58:24.693Z,98404.25
2023-05-13T10:00:52.482Z,98403.16
2023-05-13T10:03:20.028Z,98397.94
2023-05-13T10:05:48.730Z,98408.09
2023-05-13T10:08:17.603Z,98405.19
2023-05-13T10:10:46.037Z,98409.38
2023-05-13T10:13:18.841Z,98417.31
2023-05-13T10:15:50.715Z,98412.19
2023-05-13T10:18:19.208Z,98412.53
2023-05-13T10:20:47.100Z,98409.56
2023-05-13T10:23:14.167Z,98408.84
2023-05-13T10:25:42.001Z,98412.72
2023-05-13T10:28:10.533Z,98404.06
2023-05-13T10:30:38.404Z,98402.91
2023-05-13T10:33:05.528Z,98402.72
2023-05-13T10:35:37.493Z,98404.22
2023-05-13T10:38:36.647Z,98406.09
2023-05-13T10:41:12.247Z,98405.94
2023-05-13T10:43:39.427Z,98402.44
2023-05-13T10:46:12.544Z,98412.56
2023-05-13T10:48:40.628Z,98410.00
2023-05-13T10:51:10.362Z,98415.16
2023-05-13T10:53:47.416Z,98414.59
2023-05-13T10:56:15.086Z,98414.63
2023-05-13T10:58:42.171Z,98420.38
2023-05-13T11:01:31.996Z,98417.22
2023-05-13T11:04:01.137Z,98413.38
2023-05-13T11:06:35.765Z,98429.41
2023-05-13T11:09:06.040Z,98432.56
2023-05-13T11:11:35.985Z,98424.66
2023-05-13T11:14:09.693Z,98423.56
2023-05-13T11:16:37.723Z,98436.97
2023-05-13T11:19:09.696Z,98425.59
2023-05-13T11:21:41.374Z,98439.91
2023-05-13T11:24:09.715Z,98451.31
2023-05-13T11:26:52.716Z,98433.66
2023-05-13T11:29:33.515Z,98445.47
2023-05-13T11:32:01.945Z,98430.91
2023-05-13T11:34:29.804Z,98441.03
2023-05-13T11:37:10.880Z,98428.13
2023-05-13T11:39:41.704Z,98438.28
2023-05-13T11:42:10.296Z,98432.75
2023-05-13T11:44:45.721Z,98434.22
2023-05-13T11:47:12.928Z,98428.13
2023-05-13T11:49:45.025Z,98440.13
2023-05-13T11:52:17.595Z,98449.88
2023-05-13T11:54:53.435Z,98450.06
2023-05-13T11:57:24.544Z,98450.41
2023-05-13T11:59:53.893Z,98453.19
2023-05-13T12:02:22.985Z,98448.38
2023-05-13T12:04:50.891Z,98449.50
2023-05-13T12:07:37.521Z,98447.47
2023-05-13T12:10:06.022Z,98453.91
2023-05-13T12:12:34.857Z,98453.00
2023-05-13T12:15:12.902Z,98458.34
2023-05-13T12:17:41.128Z,98452.28
2023-05-13T12:20:12.607Z,98453.75
2023-05-13T12:22:42.911Z,98471.06
2023-05-13T12:25:34.752Z,98468.84
2023-05-13T12:28:22.423Z,98463.69
2023-05-13T12:31:01.639Z,98479.34
2023-05-13T12:33:42.598Z,98470.31
2023-05-13T12:36:35.770Z,98466.44
2023-05-13T12:39:10.876Z,98470.50
2023-05-13T12:41:39.562Z,98473.44
2023-05-13T12:44:13.495Z,98465.16
2023-05-13T12:46:54.745Z,98471.97
2023-05-13T12:49:23.419Z,98476.94
2023-05-13T12:51:51.680Z,98459.25
2023-05-13T12:54:18.905Z,98465.34
2023-05-13T12:56:46.168Z,98468.66
2023-05-13T12:59:14.328Z,98462.97
2023-05-13T13:01:42.855Z,98471.78
2023-05-13T13:04:11.009Z,98470.50
2023-05-13T13:06:38.203Z,98471.78
2023-05-13T13:09:06.086Z,98464.78
2023-05-13T13:11:33.222Z,98467.00
2023-05-13T13:14:00.272Z,98473.09
2023-05-13T13:16:27.444Z,98470.69
2023-05-13T13:18:58.933Z,98487.28
2023-05-13T13:21:27.250Z,98480.47
2023-05-13T13:23:54.527Z,98482.84
2023-05-13T13:26:23.141Z,98474.94
2023-05-13T13:28:50.261Z,98471.59
2023-05-13T13:31:17.393Z,98465.16
2023-05-13T13:33:44.639Z,98479.53
2023-05-13T13:36:11.689Z,98468.13
2023-05-13T13:38:38.709Z,98469.03
2023-05-13T13:41:06.928Z,98464.22
2023-05-13T13:43:34.294Z,98461.81
2023-05-13T13:46:01.415Z,98469.00
2023-05-13T13:48:28.765Z,98460.16
2023-05-13T13:50:55.889Z,98468.44
2023-05-13T13:53:22.936Z,98460.31
2023-05-13T13:55:50.007Z,98463.09
2023-05-13T13:58:17.088Z,98462.34
2023-05-13T14:00:45.076Z,98444.31
2023-05-13T14:03:12.286Z,98451.66
2023-05-13T14:05:39.484Z,98449.47
2023-05-13T14:08:06.524Z,98447.22
2023-05-13T14:10:33.899Z,98449.47
2023-05-13T14:13:01.430Z,98452.44
2023-05-13T14:15:30.730Z,98460.00
2023-05-13T14:17:58.494Z,98459.44
2023-05-13T14:20:28.777Z,98459.44
2023-05-13T14:22:56.607Z,98459.81
2023-05-13T14:25:23.656Z,98468.28
2023-05-13T14:27:50.812Z,98462.03
2023-05-13T14:30:17.896Z,98463.28
2023-05-13T14:32:45.341Z,98468.63
2023-05-13T14:35:12.994Z,98471.41
2023-05-13T14:37:40.868Z,98466.03
2023-05-13T14:40:09.987Z,98462.50
2023-05-13T14:42:37.490Z,98459.00
2023-05-13T14:45:04.953Z,98456.84
2023-05-13T14:47:32.179Z,98472.84
2023-05-13T14:49:59.267Z,98455.91
2023-05-13T14:52:26.340Z,98453.88
2023-05-13T14:54:54.022Z,98459.53
2023-05-13T14:57:21.316Z,98452.53
2023-05-13T14:59:48.452Z,98457.09
2023-05-13T15:02:17.209Z,98450.66
2023-05-13T15:04:44.667Z,98451.00
2023-05-13T15:07:11.736Z,98461.50
2023-05-13T15:09:38.785Z,98457.81
2023-05-13T15:12:06.767Z,98455.59
2023-05-13T15:14:33.785Z,98454.53
2023-05-13T15:17:00.902Z,98450.69
2023-05-13T15:19:27.960Z,98451.63
2023-05-13T15:21:55.426Z,98445.41
2023-05-13T15:24:22.832Z,98437.16
2023-05-13T15:26:50.572Z,98440.31
2023-05-13T15:29:17.868Z,98449.69
2023-05-13T15:31:44.973Z,98438.81
2023-05-13T15:34:12.101Z,98433.25
2023-05-13T15:36:39.233Z,98442.69
2023-05-13T15:39:06.712Z,98434.03
2023-05-13T15:41:33.781Z,98445.63
2023-05-13T15:44:00.791Z,98439.19
2023-05-13T15:46:28.019Z,98434.19
2023-05-13T15:48:55.505Z,98428.88
2023-05-13T15:51:22.733Z,98428.88
2023-05-13T15:53:49.828Z,98422.25
2023-05-13T15:56:16.881Z,98421.34
2023-05-13T15:58:44.340Z,98436.97
2023-05-13T16:01:11.443Z,98421.13
2023-05-13T16:03:38.873Z,98421.69
2023-05-13T16:06:06.228Z,98413.06
2023-05-13T16:08:33.477Z,98415.06
2023-05-13T16:11:00.527Z,98413.97
2023-05-13T16:13:27.959Z,98418.56
2023-05-13T16:15:55.165Z,98416.75
2023-05-13T16:18:22.217Z,98407.91
2023-05-13T16:20:49.534Z,98413.78
2023-05-13T16:23:16.693Z,98404.41
2023-05-13T16:25:43.953Z,98412.69
2023-05-13T16:28:11.222Z,98401.44
2023-05-13T16:30:39.404Z,98408.78
2023-05-13T16:33:08.075Z,98408.63
2023-05-13T16:35:35.655Z,98411.88
2023-05-13T16:38:02.862Z,98406.72
2023-05-13T16:40:30.265Z,98403.03
2023-05-13T16:42:59.850Z,98406.34
2023-05-13T16:45:29.136Z,98415.19
2023-05-13T16:47:56.351Z,98418.09
2023-05-13T16:50:23.696Z,98403.75
2023-05-13T16:52:50.979Z,98405.94
2023-05-13T16:55:18.177Z,98409.81
2023-05-13T16:57:45.722Z,98403.75
2023-05-13T17:00:14.381Z,98403.19
2023-05-13T17:02:42.820Z,98406.31
2023-05-13T17:05:09.988Z,98405.97
2023-05-13T17:07:37.039Z,98404.81
2023-05-13T17:10:04.550Z,98400.78
2023-05-13T17:12:31.641Z,98407.56
2023-05-13T17:14:59.138Z,98404.06
2023-05-13T17:17:26.737Z,98405.53
2023-05-13T17:19:53.973Z,98400.56
2023-05-13T17:22:21.425Z,98401.88
2023-05-13T17:24:48.686Z,98402.06
2023-05-13T17:27:15.824Z,98409.97
2023-05-13T17:29:42.936Z,98399.28
2023-05-13T17:32:10.033Z,98404.06
2023-05-13T17:34:37.472Z,98407.38
2023-05-13T17:37:04.598Z,98400.38
2023-05-13T17:39:31.640Z,98401.69
2023-05-13T17:41:58.684Z,98398.56
2023-05-13T17:44:25.772Z,98402.25
2023-05-13T17:46:53.182Z,98408.44
2023-05-13T17:49:20.286Z,98403.44
2023-05-13T17:51:47.555Z,98410.03
2023-05-13T17:54:14.622Z,98411.69
2023-05-13T17:56:41.658Z,98399.53
2023-05-13T17:59:08.753Z,98395.84
2023-05-13T18:01:35.814Z,98403.56
2023-05-13T18:04:03.191Z,98409.06
2023-05-13T18:06:30.307Z,98401.34
2023-05-13T18:08:57.471Z,98412.72
2023-05-13T18:11:25.017Z,98407.75
2023-05-13T18:13:52.046Z,98401.69
2023-05-13T18:16:19.754Z,98402.75
2023-05-13T18:18:48.563Z,98405.88
2023-05-13T18:21:15.753Z,98398.16
2023-05-13T18:23:45.778Z,98406.84
2023-05-13T18:26:12.826Z,98409.75
2023-05-13T18:28:41.386Z,98409.94
2023-05-13T18:31:08.778Z,98414.50
2023-05-13T18:33:36.520Z,98412.31
2023-05-13T18:36:04.062Z,98417.81
2023-05-13T18:38:31.342Z,98420.97
2023-05-13T18:41:03.286Z,98413.63
2023-05-13T18:43:30.519Z,98413.03
2023-05-13T18:45:58.279Z,98421.66
2023-05-13T18:48:25.815Z,98426.50
2023-05-13T18:50:56.254Z,98418.94
2023-05-13T18:53:23.305Z,98427.19
2023-05-13T18:55:50.662Z,98427.56
2023-05-13T18:58:17.735Z,98419.25
2023-05-13T19:00:44.925Z,98428.97
2023-05-13T19:03:12.660Z,98421.59
2023-05-13T19:05:39.841Z,98427.88
2023-05-13T19:08:08.026Z,98436.19
2023-05-13T19:10:39.919Z,98442.84
2023-05-13T19:13:09.456Z,98440.47
2023-05-13T19:15:36.866Z,98446.94
2023-05-13T19:18:03.968Z,98449.16
2023-05-13T19:20:31.182Z,98452.97
2023-05-13T19:22:58.268Z,98454.94
2023-05-13T19:25:25.474Z,98447.78
2023-05-13T19:27:52.576Z,98452.53
2023-05-13T19:30:19.723Z,98442.44
2023-05-13T19:32:47.165Z,98447.78
2023-05-13T19:35:14.319Z,98444.47
2023-05-13T19:37:41.421Z,98452.94
2023-05-13T19:40:08.938Z,98443.41
2023-05-13T19:42:36.328Z,98447.97
2023-05-13T19:45:06.316Z,98442.44
2023-05-13T19:47:36.817Z,98438.97
2023-05-13T19:50:04.200Z,98451.63
2023-05-13T19:52:31.400Z,98443.69
2023-05-13T19:54:58.607Z,98444.22
2023-05-13T19:57:28.042Z,98444.03
2023-05-13T19:59:56.393Z,98453.53
2023-05-13T20:02:23.447Z,98452.03
2023-05-13T20:04:50.563Z,98444.09
2023-05-13T20:07:18.047Z,98450.53
2023-05-13T20:09:45.087Z,98451.44
2023-05-13T20:12:12.120Z,98452.38
2023-05-13T20:14:43.982Z,98449.75
2023-05-13T20:17:14.857Z,98453.41
2023-05-13T20:19:42.824Z,98453.03
2023-05-13T20:22:10.372Z,98454.88
2023-05-13T20:24:37.690Z,98451.91
2023-05-13T20:27:04.988Z,98451.56
2023-05-13T20:29:36.459Z,98449.00
2023-05-13T20:32:04.677Z,98458.22
2023-05-13T20:34:32.908Z,98457.88
2023-05-13T20:37:00.204Z,98458.00
2023-05-13T20:39:28.582Z,98461.31
2023-05-13T20:41:56.168Z,98464.94
2023-05-13T20:44:23.758Z,98465.09
2023-05-13T20:46:51.158Z,98456.56
2023-05-13T20:49:18.254Z,98457.63
2023-05-13T20:51:47.946Z,98457.22
2023-05-13T20:54:15.048Z,98450.25
2023-05-13T20:56:42.494Z,98450.56
2023-05-13T20:59:09.842Z,98448.69
2023-05-13T21:01:37.029Z,98452.19
2023-05-13T21:04:06.084Z,98439.28
2023-05-13T21:06:33.284Z,98444.16
2023-05-13T21:09:00.741Z,98444.16
2023-05-13T21:11:27.861Z,98448.94
2023-05-13T21:13:55.126Z,98442.50
2023-05-13T21:16:22.468Z,98447.47
2023-05-13T21:18:49.695Z,98445.59
2023-05-13T21:21:16.893Z,98451.59
2023-05-13T21:23:44.099Z,98444.44
2023-05-13T21:26:11.408Z,98445.16
2023-05-13T21:28:39.091Z,98444.78
2023-05-13T21:31:06.349Z,98448.25
2023-05-13T21:33:33.411Z,98446.25
2023-05-13T21:36:00.540Z,98445.50
2023-05-13T21:38:27.746Z,98447.00
2023-05-13T21:40:55.100Z,98457.44
2023-05-13T21:43:22.173Z,98447.91
2023-05-13T21:45:49.284Z,98444.97
2023-05-13T21:48:16.600Z,98446.66
2023-05-13T21:50:43.713Z,98446.66
2023-05-13T21:53:10.846Z,98437.47
2023-05-13T21:55:37.939Z,98452.69
2023-05-13T21:58:05.040Z,98441.06
2023-05-13T22:00:32.212Z,98443.81
2023-05-13T22:03:01.169Z,98440.31
2023-05-13T22:05:28.652Z,98436.94
2023-05-13T22:07:55.926Z,98442.59
2023-05-13T22:10:23.248Z,98434.88
2023-05-13T22:12:50.495Z,98437.38
2023-05-13T22:15:17.546Z,98433.69
2023-05-13T22:17:44.778Z,98430.50
2023-05-13T22:20:12.266Z,98433.06
2023-05-13T22:22:39.329Z,98429.38
2023-05-13T22:25:06.649Z,98439.00
2023-05-13T22:27:33.745Z,98430.38
2023-05-13T22:30:00.810Z,98433.22
2023-05-13T22:32:27.953Z,98429.63
2023-05-13T22:34:55.046Z,98432.69
2023-05-13T22:37:22.348Z,98427.00
2023-05-13T22:39:49.453Z,98427.13
2023-05-13T22:42:16.698Z,98431.13
2023-05-13T22:44:43.759Z,98430.06
2023-05-13T22:47:10.841Z,98420.69
2023-05-13T22:49:37.874Z,98421.31
2023-05-13T22:52:05.947Z,98416.47
2023-05-13T22:54:32.983Z,98420.47
2023-05-13T22:57:00.030Z,98419.63
2023-05-13T22:59:27.578Z,98419.00
2023-05-13T23:01:54.709Z,98417.41
2023-05-13T23:04:22.143Z,98420.25
2023-05-13T23:06:49.238Z,98414.53
2023-05-13T23:09:16.302Z,98411.59
2023-05-13T23:11:43.367Z,98408.41
2023-05-13T23:14:10.486Z,98409.47
2023-05-13T23:16:37.563Z,98405.53
2023-05-13T23:19:04.676Z,98407.53
2023-05-13T23:21:32.421Z,98400.84
2023-05-13T23:23:59.476Z,98400.72
2023-05-13T23:26:26.601Z,98392.34
2023-05-13T23:28:53.687Z,98390.88
2023-05-13T23:31:20.757Z,98395.09
2023-05-13T23:33:48.007Z,98390.13
2023-05-13T23:36:16.045Z,98384.44
2023-05-13T23:38:43.101Z,98392.75
2023-05-13T23:41:10.204Z,98382.31
2023-05-13T23:43:37.564Z,98377.78
2023-05-13T23:46:04.744Z,98380.22
2023-05-13T23:48:31.939Z,98374.22
2023-05-13T23:50:59.021Z,98371.75
2023-05-13T23:53:26.073Z,98378.09
2023-05-13T23:55:53.256Z,98369.41
2023-05-13T23:58:20.378Z,98355.69
